createdAt,value
2023-04-11T00:02:09.362Z,100.00
2023-04-11T00:07:13.216Z,100.00
2023-04-11T00:12:17.394Z,100.00
2023-04-11T00:17:21.625Z,100.00
2023-04-11T00:22:25.507Z,100.00
2023-04-11T00:27:29.535Z,100.00
2023-04-11T00:32:33.209Z,100.00
2023-04-11T00:37:39.371Z,100.00
2023-04-11T00:42:43.223Z,100.00
2023-04-11T00:47:47.073Z,100.00
2023-04-11T00:52:51.944Z,100.00
2023-04-11T00:57:56.929Z,100.00
2023-04-11T01:03:01.554Z,100.00
2023-04-11T01:08:06.710Z,100.00
2023-04-11T01:13:10.420Z,100.00
2023-04-11T01:18:15.795Z,100.00
2023-04-11T01:23:23.728Z,100.00
2023-04-11T01:28:27.436Z,100.00
2023-04-11T01:33:31.729Z,100.00
2023-04-11T01:38:35.621Z,100.00
2023-04-11T01:43:39.404Z,100.00
2023-04-11T01:48:45.897Z,100.00
2023-04-11T01:53:49.832Z,100.00
2023-04-11T01:58:53.795Z,100.00
2023-04-11T02:03:57.908Z,100.00
2023-04-11T02:09:02.020Z,100.00
2023-04-11T02:14:06.662Z,100.00
2023-04-11T02:19:10.460Z,100.00
2023-04-11T02:24:14.437Z,100.00
2023-04-11T02:29:18.858Z,100.00
2023-04-11T02:34:23.003Z,100.00
2023-04-11T02:39:26.761Z,100.00
2023-04-11T02:44:32.603Z,100.00
2023-04-11T02:49:37.124Z,100.00
2023-04-11T02:54:41.927Z,100.00
2023-04-11T02:59:45.873Z,100.00
2023-04-11T03:04:52.499Z,100.00
2023-04-11T03:09:56.693Z,100.00
2023-04-11T03:15:00.485Z,100.00
2023-04-11T03:20:07.519Z,100.00
2023-04-11T03:25:11.635Z,100.00
2023-04-11T03:30:16.341Z,100.00
2023-04-11T03:35:22.865Z,100.00
2023-04-11T03:40:27.149Z,100.00
2023-04-11T03:45:39.868Z,100.00
2023-04-11T03:50:48.401Z,100.00
2023-04-11T03:55:54.892Z,100.00
2023-04-11T04:01:08.339Z,100.00
2023-04-11T04:06:17.608Z,100.00
2023-04-11T04:11:23.627Z,100.00
2023-04-11T04:16:30.019Z,100.00
2023-04-11T04:21:38.403Z,100.00
2023-04-11T04:26:42.474Z,100.00
2023-04-11T04:31:57.396Z,100.00
2023-04-11T04:37:21.919Z,100.00
2023-04-11T04:42:29.722Z,100.00
2023-04-11T04:47:38.981Z,100.00
2023-04-11T04:52:43.207Z,100.00
2023-04-11T04:57:47.034Z,100.00
2023-04-11T05:02:55.451Z,100.00
2023-04-11T05:08:01.629Z,100.00
2023-04-11T05:13:06.884Z,100.00
2023-04-11T05:18:10.904Z,100.00
2023-04-11T05:23:15.235Z,100.00
2023-04-11T05:28:20.077Z,100.00
2023-04-11T05:33:25.184Z,100.00
2023-04-11T05:38:29.605Z,100.00
2023-04-11T05:43:33.562Z,100.00
2023-04-11T05:48:39.870Z,100.00
2023-04-11T05:53:44.422Z,100.00
2023-04-11T05:58:48.294Z,100.00
2023-04-11T06:03:52.225Z,100.00
2023-04-11T06:08:56.062Z,100.00
2023-04-11T06:13:59.716Z,100.00
2023-04-11T06:19:04.829Z,100.00
2023-04-11T06:24:10.533Z,100.00
2023-04-11T06:29:15.672Z,100.00
2023-04-11T06:34:20.228Z,100.00
2023-04-11T06:39:24.053Z,100.00
2023-04-11T06:44:28.191Z,100.00
2023-04-11T06:49:32.076Z,100.00
2023-04-11T06:54:35.859Z,100.00
2023-04-11T06:59:39.759Z,100.00
2023-04-11T07:04:43.764Z,100.00
2023-04-11T07:09:47.987Z,100.00
2023-04-11T07:14:51.696Z,100.00
2023-04-11T07:19:55.416Z,100.00
2023-04-11T07:24:59.165Z,100.00
2023-04-11T07:30:04.212Z,100.00
2023-04-11T07:35:08.476Z,100.00
2023-04-11T07:40:15.986Z,100.00
2023-04-11T07:45:21.140Z,100.00
2023-04-11T07:50:24.971Z,100.00
2023-04-11T07:55:28.723Z,100.00
2023-04-11T08:00:36.996Z,100.00
2023-04-11T08:05:43.679Z,100.00
2023-04-11T08:10:47.955Z,100.00
2023-04-11T08:15:52.615Z,100.00
2023-04-11T08:20:58.451Z,100.00
2023-04-11T08:26:02.377Z,100.00
2023-04-11T08:31:06.408Z,100.00
2023-04-11T08:36:11.170Z,100.00
2023-04-11T08:41:15.026Z,100.00
2023-04-11T08:46:29.666Z,100.00
2023-04-11T08:51:35.546Z,100.00
2023-04-11T08:56:43.248Z,100.00
2023-04-11T09:01:47.102Z,100.00
2023-04-11T09:07:00.712Z,100.00
2023-04-11T09:12:05.633Z,100.00
2023-04-11T09:17:17.322Z,100.00
2023-04-11T09:22:22.343Z,100.00
2023-04-11T09:27:26.844Z,100.00
2023-04-11T09:32:35.106Z,100.00
2023-04-11T09:37:44.643Z,100.00
2023-04-11T09:42:49.811Z,100.00
2023-04-11T09:47:56.281Z,100.00
2023-04-11T09:53:00.336Z,99.39
2023-04-11T09:58:05.825Z,98.57
2023-04-11T10:03:09.885Z,98.23
2023-04-11T10:08:33.162Z,98.07
2023-04-11T10:13:39.928Z,97.75
2023-04-11T10:18:52.894Z,97.30
2023-04-11T10:24:21.811Z,97.12
2023-04-11T10:29:33.591Z,95.53
2023-04-11T10:34:41.249Z,94.54
2023-04-11T10:39:52.158Z,93.30
2023-04-11T10:45:15.289Z,92.48
2023-04-11T10:50:29.063Z,92.09
2023-04-11T10:55:48.402Z,92.10
2023-04-11T11:01:01.069Z,90.82
2023-04-11T11:06:10.192Z,90.36
2023-04-11T11:11:16.790Z,88.89
2023-04-11T11:16:22.841Z,88.02
2023-04-11T11:21:28.959Z,88.63
2023-04-11T11:26:40.850Z,88.32
2023-04-11T11:31:46.191Z,87.51
2023-04-11T11:36:50.111Z,88.93
2023-04-11T11:41:54.278Z,90.40
2023-04-11T11:47:06.078Z,90.62
2023-04-11T11:52:09.884Z,90.78
2023-04-11T11:57:23.071Z,91.55
2023-04-11T12:02:28.015Z,92.52
2023-04-11T12:07:34.453Z,93.25
2023-04-11T12:12:42.994Z,93.89
2023-04-11T12:17:51.748Z,94.58
2023-04-11T12:22:56.614Z,95.01
2023-04-11T12:28:00.583Z,95.37
2023-04-11T12:33:04.815Z,95.94
2023-04-11T12:38:09.249Z,96.27
2023-04-11T12:43:17.363Z,96.94
2023-04-11T12:48:26.305Z,97.27
2023-04-11T12:53:34.048Z,98.64
2023-04-11T12:58:42.513Z,99.49
2023-04-11T13:03:51.522Z,99.62
2023-04-11T13:09:01.123Z,99.01
2023-04-11T13:14:07.287Z,98.72
2023-04-11T13:19:11.457Z,98.86
2023-04-11T13:24:18.016Z,98.69
2023-04-11T13:29:23.456Z,98.80
2023-04-11T13:34:28.464Z,99.19
2023-04-11T13:39:35.618Z,99.33
2023-04-11T13:44:46.007Z,98.69
2023-04-11T13:49:56.839Z,98.29
2023-04-11T13:55:01.447Z,97.84
2023-04-11T14:00:12.613Z,98.55
2023-04-11T14:05:19.648Z,98.57
2023-04-11T14:10:24.683Z,99.18
2023-04-11T14:21:18.989Z,99.49
2023-04-11T14:26:23.230Z,99.65
2023-04-11T14:31:30.849Z,100.00
2023-04-11T14:36:37.990Z,99.26
2023-04-11T14:41:44.820Z,99.59
2023-04-11T14:46:48.848Z,99.79
2023-04-11T14:51:56.669Z,100.00
2023-04-11T14:57:05.103Z,99.97
2023-04-11T15:02:13.292Z,100.00
2023-04-11T15:07:18.810Z,100.00
2023-04-11T15:12:23.880Z,100.00
2023-04-11T15:17:29.456Z,100.00
2023-04-11T15:22:39.421Z,100.00
2023-04-11T15:27:46.161Z,100.00
2023-04-11T15:32:54.068Z,100.00
2023-04-11T15:38:02.276Z,100.00
2023-04-11T15:43:09.418Z,100.00
2023-04-11T15:48:14.345Z,100.00
2023-04-11T15:53:18.710Z,100.00
2023-04-11T15:58:22.503Z,100.00
2023-04-11T16:03:32.049Z,100.00
2023-04-11T16:08:36.002Z,100.00
2023-04-11T16:13:44.331Z,100.00
2023-04-11T16:18:48.159Z,100.00
2023-04-11T16:23:55.397Z,100.00
2023-04-11T16:28:59.455Z,100.00
2023-04-11T16:34:11.294Z,100.00
2023-04-11T16:39:25.096Z,99.89
2023-04-11T16:50:12.455Z,97.42
2023-04-11T16:55:17.210Z,96.68
2023-04-11T17:00:21.227Z,94.74
2023-04-11T17:05:25.132Z,95.86
2023-04-11T17:10:28.920Z,96.72
2023-04-11T17:15:35.107Z,97.31
2023-04-11T17:20:38.845Z,97.42
2023-04-11T17:25:42.808Z,97.93
2023-04-11T17:30:48.966Z,98.27
2023-04-11T17:35:53.096Z,98.82
2023-04-11T17:41:00.323Z,98.88
2023-04-11T17:46:10.926Z,98.85
2023-04-11T17:51:15.000Z,98.54
2023-04-11T17:56:19.996Z,98.31
2023-04-11T18:01:25.430Z,98.23
2023-04-11T18:06:30.100Z,98.68
2023-04-11T18:11:38.204Z,98.72
2023-04-11T18:16:42.734Z,99.09
2023-04-11T18:21:48.959Z,98.98
2023-04-11T18:26:53.687Z,98.23
2023-04-11T18:31:58.188Z,98.02
2023-04-11T18:37:02.804Z,97.36
2023-04-11T18:42:06.910Z,97.11
2023-04-11T18:47:18.631Z,97.38
2023-04-11T18:52:24.276Z,97.32
2023-04-11T18:57:33.814Z,97.43
2023-04-11T19:02:39.895Z,98.07
2023-04-11T19:07:46.489Z,98.16
2023-04-11T19:12:51.645Z,98.30
2023-04-11T19:17:58.404Z,98.70
2023-04-11T19:23:03.427Z,98.60
2023-04-11T19:28:13.707Z,98.70
2023-04-11T19:33:20.911Z,99.25
2023-04-11T19:38:26.730Z,99.37
2023-04-11T19:43:36.302Z,99.49
2023-04-11T19:48:43.898Z,99.74
2023-04-11T19:53:48.608Z,100.00
2023-04-11T19:58:56.957Z,100.00
2023-04-11T20:04:03.961Z,100.00
2023-04-11T20:09:16.506Z,100.00
2023-04-11T20:14:22.506Z,100.00
2023-04-11T20:19:29.908Z,100.00
2023-04-11T20:24:35.069Z,100.00
2023-04-11T20:29:41.735Z,100.00
2023-04-11T20:34:46.494Z,100.00
2023-04-11T20:39:51.800Z,100.00
2023-04-11T20:45:03.291Z,100.00
2023-04-11T20:50:10.850Z,100.00
2023-04-11T20:55:14.967Z,100.00
2023-04-11T21:00:20.248Z,100.00
2023-04-11T21:05:25.282Z,100.00
2023-04-11T21:10:29.270Z,100.00
2023-04-11T21:15:35.181Z,100.00
2023-04-11T21:20:40.922Z,100.00
2023-04-11T21:25:44.820Z,100.00
2023-04-11T21:30:48.505Z,100.00
2023-04-11T21:35:55.927Z,100.00
2023-04-11T21:41:02.623Z,100.00
2023-04-11T21:46:07.898Z,100.00
2023-04-11T21:51:20.952Z,100.00
2023-04-11T21:56:24.652Z,100.00
2023-04-11T22:01:29.575Z,100.00
2023-04-11T22:06:33.356Z,100.00
2023-04-11T22:11:37.120Z,100.00
2023-04-11T22:16:42.615Z,100.00
2023-04-11T22:21:55.892Z,100.00
2023-04-11T22:26:59.854Z,100.00
2023-04-11T22:32:04.609Z,100.00
2023-04-11T22:37:08.586Z,100.00
2023-04-11T22:42:13.025Z,100.00
2023-04-11T22:47:17.072Z,100.00
2023-04-11T22:52:26.428Z,100.00
2023-04-11T22:57:30.104Z,100.00
2023-04-11T23:02:36.328Z,100.00
2023-04-11T23:07:40.232Z,100.00
2023-04-11T23:12:44.929Z,100.00
2023-04-11T23:17:49.587Z,100.00
2023-04-11T23:22:54.048Z,100.00
2023-04-11T23:27:58.296Z,100.00
2023-04-11T23:33:03.106Z,100.00
2023-04-11T23:38:07.086Z,100.00
2023-04-11T23:43:10.872Z,100.00
2023-04-11T23:48:14.606Z,100.00
2023-04-11T23:53:18.469Z,100.00
2023-04-11T23:58:22.181Z,100.00
